Time;durP1;ratioP1;P1;durP2;ratioP2;P2;SDS_P1;SDS_P2;PMS_P1;PMS_P2;Temp;Humidity;BMP_temperature;BMP_pressure;BME280_temperature;BME280_humidity;BME280_pressure;Samples;Min_cycle;Max_cycle;Signal;HPM_P1;HPM_P2
2023/01/05 00:02:40;;;;;;;18.25;3.67;;;11.40;99.90;;;;;;7297148;32;20235;-61
2023/01/05 00:06:42;;;;;;;17.25;2.95;;;11.50;99.90;;;;;;7285176;32;20116;-61
2023/01/05 00:23:46;;;;;;;19.50;3.45;;;11.30;99.90;;;;;;7297179;32;20715;-61
2023/01/05 00:27:50;;;;;;;21.12;3.92;;;11.30;99.90;;;;;;7291044;32;20120;-60
2023/01/05 00:31:52;;;;;;;26.17;4.15;;;11.30;99.90;;;;;;7280907;32;20250;-60
2023/01/05 00:35:53;;;;;;;26.37;4.12;;;11.30;99.90;;;;;;7285262;32;20124;-61
2023/01/05 00:39:55;;;;;;;23.08;3.97;;;11.30;99.90;;;;;;7295112;32;20176;-60
2023/01/05 00:43:57;;;;;;;23.05;4.00;;;11.30;99.90;;;;;;7298182;32;20133;-61
2023/01/05 00:47:58;;;;;;;24.02;4.12;;;11.30;99.90;;;;;;7297983;32;20108;-60
2023/01/05 00:52:01;;;;;;;19.12;3.37;;;11.20;99.90;;;;;;7293448;32;20187;-60
2023/01/05 00:56:03;;;;;;;24.30;4.25;;;11.20;99.90;;;;;;7297369;32;20150;-61
2023/01/05 01:00:07;;;;;;;25.60;4.25;;;11.10;99.90;;;;;;7295032;32;20464;-60
2023/01/05 01:04:09;;;;;;;17.10;4.15;;;11.10;99.90;;;;;;7293201;32;20229;-62
2023/01/05 01:08:10;;;;;;;18.73;3.25;;;11.10;99.90;;;;;;7297619;32;20370;-60
2023/01/05 01:12:12;;;;;;;19.58;3.80;;;11.10;99.90;;;;;;7287382;32;20205;-60
2023/01/05 01:16:15;;;;;;;19.77;3.95;;;11.10;99.90;;;;;;7294222;32;20127;-61
2023/01/05 01:20:17;;;;;;;22.50;3.47;;;11.10;99.90;;;;;;7293343;32;20101;-61
2023/01/05 01:24:22;;;;;;;25.12;3.83;;;11.10;99.90;;;;;;7296157;32;20130;-60
2023/01/05 01:28:24;;;;;;;21.35;3.28;;;11.10;99.90;;;;;;7297469;32;20134;-60
2023/01/05 01:32:25;;;;;;;27.37;4.65;;;11.10;99.90;;;;;;7298069;32;20111;-60
2023/01/05 01:36:27;;;;;;;21.48;3.00;;;11.10;99.90;;;;;;7297993;32;20182;-59
2023/01/05 01:40:29;;;;;;;21.27;4.30;;;11.00;99.90;;;;;;7298217;32;20168;-60
2023/01/05 01:44:47;;;;;;;23.40;4.20;;;11.00;99.90;;;;;;7291888;32;20103;-59
2023/01/05 01:48:59;;;;;;;25.33;4.18;;;11.00;99.90;;;;;;7293542;32;20166;-59
2023/01/05 01:53:10;;;;;;;24.50;3.87;;;11.00;99.90;;;;;;7294421;32;20103;-59
2023/01/05 01:57:12;;;;;;;25.70;4.22;;;11.00;99.90;;;;;;7295895;32;20120;-60
2023/01/05 02:01:14;;;;;;;21.55;3.65;;;11.00;99.90;;;;;;7293369;32;20244;-59
2023/01/05 02:05:19;;;;;;;23.98;4.32;;;10.90;99.90;;;;;;7296176;32;20107;-61
2023/01/05 02:09:20;;;;;;;20.05;4.45;;;10.90;99.90;;;;;;7296339;32;20171;-60
2023/01/05 02:13:31;;;;;;;24.05;3.97;;;10.90;99.90;;;;;;7294922;32;20245;-60
2023/01/05 02:17:45;;;;;;;23.80;5.55;;;10.80;99.90;;;;;;7292152;32;20136;-57
2023/01/05 02:22:13;;;;;;;18.02;3.67;;;10.80;99.90;;;;;;7277607;32;20262;-59
2023/01/05 02:27:01;;;;;;;23.12;3.83;;;10.80;99.90;;;;;;7294401;32;20266;-58
2023/01/05 02:31:26;;;;;;;21.20;3.63;;;10.80;99.90;;;;;;7290103;32;20131;-59
2023/01/05 02:35:50;;;;;;;26.87;4.55;;;10.70;99.90;;;;;;7287902;32;20334;-59
2023/01/05 02:40:10;;;;;;;25.15;5.05;;;10.70;99.90;;;;;;7289763;32;20126;-59
2023/01/05 02:44:15;;;;;;;22.58;4.40;;;10.70;99.90;;;;;;7299106;32;20139;-60
2023/01/05 02:48:17;;;;;;;25.08;4.53;;;10.70;99.90;;;;;;7300358;32;20133;-60
2023/01/05 02:52:20;;;;;;;25.00;4.40;;;10.70;99.90;;;;;;7297743;32;20158;-59
2023/01/05 02:56:32;;;;;;;25.73;4.12;;;10.70;99.90;;;;;;7298144;32;20220;-60
2023/01/05 03:00:45;;;;;;;26.37;4.10;;;10.70;99.90;;;;;;7298781;32;20570;-59
2023/01/05 03:05:20;;;;;;;24.45;4.43;;;10.70;99.90;;;;;;7283584;32;20343;-59
2023/01/05 03:09:26;;;;;;;21.83;3.97;;;10.70;99.90;;;;;;7288968;32;20108;-59
2023/01/05 03:13:42;;;;;;;26.05;4.95;;;10.70;99.90;;;;;;7294478;32;20113;-60
2023/01/05 03:17:51;;;;;;;23.73;4.27;;;10.70;99.90;;;;;;7298945;32;20728;-59
2023/01/05 03:35:35;;;;;;;24.50;4.22;;;10.70;99.90;;;;;;7297510;32;20649;-61
2023/01/05 03:39:40;;;;;;;25.83;4.18;;;10.60;99.90;;;;;;7297484;32;20112;-59
2023/01/05 03:44:02;;;;;;;23.05;4.93;;;10.70;99.90;;;;;;7300142;32;20175;-60
2023/01/05 03:48:04;;;;;;;19.92;4.07;;;10.70;99.90;;;;;;7280727;32;20162;-61
2023/01/05 03:52:05;;;;;;;21.40;4.18;;;10.70;99.90;;;;;;7292527;32;20110;-59
2023/01/05 03:56:07;;;;;;;25.30;4.37;;;10.60;99.90;;;;;;7298493;32;20258;-60
2023/01/05 04:00:10;;;;;;;24.73;4.37;;;10.60;99.90;;;;;;7297613;32;20654;-59
2023/01/05 04:04:11;;;;;;;17.87;3.55;;;10.70;99.90;;;;;;7298942;32;20138;-59
2023/01/05 04:08:13;;;;;;;25.12;4.20;;;10.60;99.90;;;;;;7295316;32;20138;-59
2023/01/05 04:12:15;;;;;;;26.58;5.18;;;10.60;99.90;;;;;;7296307;32;20542;-59
2023/01/05 04:16:17;;;;;;;23.67;4.22;;;10.60;99.90;;;;;;7297313;32;20104;-59
2023/01/05 04:20:19;;;;;;;24.98;4.57;;;10.60;99.90;;;;;;7298369;32;20271;-59
2023/01/05 04:24:20;;;;;;;23.33;4.82;;;10.50;99.90;;;;;;7299580;32;20609;-59
2023/01/05 04:28:22;;;;;;;27.35;4.75;;;10.50;99.90;;;;;;7298220;32;20330;-59
2023/01/05 04:32:24;;;;;;;22.30;3.95;;;10.50;99.90;;;;;;7295982;32;20108;-59
2023/01/05 04:36:26;;;;;;;17.00;4.20;;;10.40;99.90;;;;;;7297707;32;20123;-60
2023/01/05 04:40:27;;;;;;;24.52;4.25;;;10.40;99.90;;;;;;7296630;32;20212;-59
2023/01/05 04:44:29;;;;;;;21.67;4.47;;;10.20;99.90;;;;;;7297831;32;20126;-59
2023/01/05 04:48:31;;;;;;;26.48;4.72;;;10.10;99.90;;;;;;7300748;32;20575;-59
2023/01/05 04:52:33;;;;;;;23.87;4.68;;;10.00;99.90;;;;;;7294890;32;20537;-61
2023/01/05 04:56:34;;;;;;;26.17;4.72;;;9.90;99.90;;;;;;7296723;32;20108;-59
2023/01/05 05:00:36;;;;;;;22.87;3.85;;;9.90;99.90;;;;;;7291728;32;20541;-60
2023/01/05 05:04:38;;;;;;;31.33;5.12;;;9.90;99.90;;;;;;7293750;32;20195;-60
2023/01/05 05:08:40;;;;;;;24.98;4.40;;;9.80;99.90;;;;;;7297913;32;20536;-59
2023/01/05 05:12:41;;;;;;;25.70;4.68;;;9.90;99.90;;;;;;7296860;32;20124;-60
2023/01/05 05:16:43;;;;;;;25.27;4.97;;;9.80;99.90;;;;;;7297569;32;20179;-59
2023/01/05 05:20:49;;;;;;;27.23;4.80;;;9.80;99.90;;;;;;7297146;32;20171;-60
2023/01/05 05:24:51;;;;;;;25.95;4.07;;;9.80;99.90;;;;;;7298217;32;20175;-60
2023/01/05 05:28:52;;;;;;;35.50;5.35;;;9.80;99.90;;;;;;7298250;32;20143;-59
2023/01/05 05:32:54;;;;;;;26.73;5.68;;;9.90;99.90;;;;;;7299456;32;20126;-59
2023/01/05 05:36:56;;;;;;;29.90;4.43;;;9.90;99.90;;;;;;7296071;32;20115;-59
2023/01/05 05:40:57;;;;;;;27.65;4.50;;;9.90;99.90;;;;;;7296334;32;20217;-59
2023/01/05 05:44:59;;;;;;;32.97;5.35;;;9.90;99.90;;;;;;7296876;32;20111;-60
2023/01/05 05:49:01;;;;;;;21.62;4.20;;;9.90;99.90;;;;;;7294510;32;20498;-60
2023/01/05 05:53:03;;;;;;;29.42;5.07;;;9.80;99.90;;;;;;7297901;32;20158;-60
2023/01/05 05:57:04;;;;;;;24.87;4.45;;;9.90;99.90;;;;;;7295969;32;20141;-60
2023/01/05 06:01:06;;;;;;;27.08;4.60;;;9.90;99.90;;;;;;7297273;32;20272;-60
2023/01/05 06:05:08;;;;;;;22.92;4.28;;;9.80;99.90;;;;;;7295705;32;20195;-60
2023/01/05 06:09:10;;;;;;;27.65;4.40;;;9.80;99.90;;;;;;7294010;32;20574;-59
2023/01/05 06:13:12;;;;;;;26.65;5.03;;;9.80;99.90;;;;;;7300208;32;20127;-59
2023/01/05 06:17:13;;;;;;;24.65;4.22;;;9.80;99.90;;;;;;7301157;32;20258;-59
2023/01/05 06:21:15;;;;;;;33.80;6.60;;;9.80;99.90;;;;;;7292634;32;20235;-59
2023/01/05 06:25:17;;;;;;;27.17;5.15;;;9.80;99.90;;;;;;7300731;32;20161;-60
2023/01/05 06:29:18;;;;;;;26.12;5.72;;;9.80;99.90;;;;;;7296942;32;20218;-60
2023/01/05 06:33:20;;;;;;;27.80;5.60;;;9.70;99.90;;;;;;7292650;32;20108;-59
2023/01/05 06:37:22;;;;;;;25.50;5.75;;;9.80;99.90;;;;;;7299189;32;20134;-60
2023/01/05 06:41:24;;;;;;;31.30;6.65;;;9.80;99.90;;;;;;7300532;32;20143;-60
2023/01/05 06:45:25;;;;;;;26.15;5.95;;;9.80;99.90;;;;;;7302609;32;20238;-60
2023/01/05 06:49:27;;;;;;;35.67;6.40;;;9.80;99.90;;;;;;7283517;32;20112;-60
2023/01/05 06:53:29;;;;;;;25.52;5.18;;;9.80;99.90;;;;;;7300428;32;20224;-60
2023/01/05 06:57:30;;;;;;;28.15;5.15;;;9.80;99.90;;;;;;7297887;32;20317;-59
2023/01/05 07:01:32;;;;;;;27.42;5.45;;;9.80;99.90;;;;;;7293806;32;20135;-60
2023/01/05 07:05:34;;;;;;;35.90;5.57;;;9.80;99.90;;;;;;7292255;32;20786;-60
2023/01/05 07:09:36;;;;;;;26.10;5.00;;;9.70;99.90;;;;;;7295142;32;20108;-61
2023/01/05 07:13:37;;;;;;;32.20;6.03;;;9.70;99.90;;;;;;7299546;32;20108;-60
2023/01/05 07:17:39;;;;;;;36.38;6.18;;;9.60;99.90;;;;;;7300387;32;20107;-61
2023/01/05 07:21:41;;;;;;;32.42;5.50;;;9.60;99.90;;;;;;7268184;32;20647;-60
2023/01/05 07:25:43;;;;;;;36.85;5.90;;;9.70;99.90;;;;;;7300313;32;20234;-60
2023/01/05 07:29:44;;;;;;;23.98;5.53;;;9.60;99.90;;;;;;7299631;32;20144;-59
2023/01/05 07:33:46;;;;;;;29.70;6.25;;;9.70;99.90;;;;;;7297643;32;20259;-60
2023/01/05 07:37:48;;;;;;;32.08;6.78;;;9.70;99.90;;;;;;7295831;32;20107;-60
2023/01/05 07:41:49;;;;;;;39.25;6.85;;;9.70;99.90;;;;;;7298459;32;20635;-61
2023/01/05 07:45:55;;;;;;;31.20;6.05;;;9.70;99.90;;;;;;7296985;32;20706;-61
2023/01/05 07:49:57;;;;;;;37.08;6.30;;;9.60;99.90;;;;;;7297737;32;20167;-60
2023/01/05 07:53:58;;;;;;;39.20;6.82;;;9.70;99.90;;;;;;7295931;32;20112;-60
2023/01/05 07:58:00;;;;;;;36.28;7.03;;;9.60;99.90;;;;;;7298223;32;20282;-61
2023/01/05 08:02:02;;;;;;;23.62;5.80;;;9.70;99.90;;;;;;7297086;32;20244;-60
2023/01/05 08:06:18;;;;;;;31.98;6.75;;;9.70;99.90;;;;;;7297032;32;20138;-60
2023/01/05 08:10:29;;;;;;;35.55;6.03;;;9.70;99.90;;;;;;7288225;32;21490;-60
2023/01/05 08:14:31;;;;;;;33.80;5.70;;;9.70;99.90;;;;;;7291697;32;20151;-61
2023/01/05 08:18:33;;;;;;;34.97;6.65;;;9.80;99.90;;;;;;7295856;32;20127;-62
2023/01/05 08:22:35;;;;;;;32.80;6.25;;;9.80;99.90;;;;;;7300836;32;20309;-61
2023/01/05 08:26:37;;;;;;;36.83;6.18;;;9.80;99.90;;;;;;7299361;32;20179;-62
2023/01/05 08:30:39;;;;;;;31.37;5.43;;;9.80;99.90;;;;;;7298760;32;20228;-61
2023/01/05 08:34:41;;;;;;;39.00;6.05;;;9.90;99.90;;;;;;7296738;32;20250;-61
2023/01/05 08:38:49;;;;;;;33.25;6.43;;;9.90;99.90;;;;;;7293783;32;20103;-61
2023/01/05 08:42:51;;;;;;;26.23;6.22;;;9.90;99.90;;;;;;7297332;32;20199;-61
2023/01/05 08:46:52;;;;;;;32.50;6.20;;;10.00;99.90;;;;;;7297098;32;20112;-60
2023/01/05 08:50:54;;;;;;;37.53;6.10;;;10.00;99.90;;;;;;7294132;32;20231;-60
2023/01/05 08:54:56;;;;;;;36.08;6.03;;;10.00;99.90;;;;;;7299059;32;20511;-62
2023/01/05 08:59:00;;;;;;;38.00;6.32;;;10.00;99.90;;;;;;7292686;32;20135;-61
2023/01/05 09:03:02;;;;;;;37.70;6.53;;;10.00;99.90;;;;;;7298230;32;20104;-61
2023/01/05 09:07:03;;;;;;;36.05;5.62;;;10.00;99.90;;;;;;7284213;32;20127;-61
2023/01/05 09:11:06;;;;;;;32.00;6.15;;;10.00;99.90;;;;;;7295701;32;20230;-61
2023/01/05 09:15:08;;;;;;;38.35;6.78;;;10.10;99.90;;;;;;7290670;32;20169;-62
2023/01/05 09:19:11;;;;;;;28.15;5.93;;;10.00;99.90;;;;;;7297429;32;20221;-62
2023/01/05 09:23:13;;;;;;;27.87;6.50;;;10.00;99.90;;;;;;7294596;32;20108;-61
2023/01/05 09:27:14;;;;;;;30.33;6.60;;;10.10;99.90;;;;;;7290738;32;20107;-61
2023/01/05 09:31:21;;;;;;;37.72;7.12;;;10.10;99.90;;;;;;7292833;32;20107;-61
2023/01/05 09:35:23;;;;;;;29.35;6.30;;;10.10;99.90;;;;;;7297756;32;20171;-61
2023/01/05 09:39:24;;;;;;;36.35;6.60;;;10.20;99.90;;;;;;7297810;32;20107;-61
2023/01/05 09:43:31;;;;;;;32.53;6.07;;;10.30;99.90;;;;;;7296449;32;20137;-62
2023/01/05 09:47:39;;;;;;;32.65;7.45;;;10.30;99.90;;;;;;7294609;32;20589;-61
2023/01/05 09:51:41;;;;;;;25.08;5.03;;;10.40;99.90;;;;;;7297179;32;20530;-60
2023/01/05 09:55:48;;;;;;;28.08;5.87;;;10.50;99.90;;;;;;7290796;32;20195;-60
2023/01/05 10:00:05;;;;;;;39.05;7.43;;;10.40;99.90;;;;;;7292434;32;20748;-61
2023/01/05 10:04:14;;;;;;;31.33;6.57;;;10.40;99.90;;;;;;7287599;32;20164;-60
2023/01/05 10:08:39;;;;;;;35.60;6.45;;;10.50;99.90;;;;;;7290425;32;20139;-57
2023/01/05 10:13:16;;;;;;;36.58;6.30;;;10.60;99.90;;;;;;7296533;32;20392;-57
2023/01/05 10:17:17;;;;;;;40.40;7.25;;;10.80;99.90;;;;;;7285401;32;20206;-60
2023/01/05 10:22:04;;;;;;;27.10;5.30;;;10.70;99.90;;;;;;7281970;32;20214;-62
2023/01/05 10:26:23;;;;;;;30.67;5.82;;;10.60;99.90;;;;;;7292989;32;20120;-61
2023/01/05 10:30:56;;;;;;;26.00;6.65;;;10.70;99.90;;;;;;7295736;32;20144;-62
2023/01/05 10:35:25;;;;;;;37.90;6.35;;;10.60;99.90;;;;;;7295655;32;20112;-61
2023/01/05 10:40:11;;;;;;;28.83;5.57;;;10.60;99.90;;;;;;7264958;32;20100;-62
2023/01/05 10:44:15;;;;;;;29.35;6.15;;;10.70;99.90;;;;;;7289567;32;20211;-57
2023/01/05 10:48:24;;;;;;;31.02;6.00;;;10.70;99.90;;;;;;7289670;32;20127;-63
2023/01/05 10:52:26;;;;;;;31.25;6.75;;;10.80;99.90;;;;;;7291772;32;20128;-61
2023/01/05 10:56:28;;;;;;;41.42;6.32;;;10.80;99.90;;;;;;7282978;32;20199;-62
2023/01/05 11:00:41;;;;;;;31.48;6.30;;;10.90;99.90;;;;;;7293168;32;20506;-61
2023/01/05 11:04:47;;;;;;;30.42;6.43;;;10.90;99.90;;;;;;7297929;32;20119;-61
2023/01/05 11:08:49;;;;;;;37.75;6.40;;;10.80;99.90;;;;;;7294699;32;20112;-61
2023/01/05 11:12:59;;;;;;;36.75;5.85;;;10.80;99.90;;;;;;7297170;32;20116;-60
2023/01/05 11:17:03;;;;;;;30.00;5.28;;;10.90;99.90;;;;;;7284785;32;20223;-60
2023/01/05 11:21:13;;;;;;;33.05;6.72;;;10.80;99.90;;;;;;7292564;32;20536;-62
2023/01/05 11:25:32;;;;;;;30.23;5.90;;;10.80;99.90;;;;;;7293413;32;20787;-61
2023/01/05 11:29:34;;;;;;;32.38;6.68;;;10.80;99.90;;;;;;7296474;32;20155;-60
2023/01/05 11:33:38;;;;;;;34.45;6.07;;;10.80;99.90;;;;;;7291912;32;20104;-62
2023/01/05 11:37:44;;;;;;;27.25;6.12;;;10.70;99.90;;;;;;7290327;32;20249;-62
2023/01/05 11:41:46;;;;;;;36.27;6.40;;;10.70;99.90;;;;;;7296519;32;21000;-61
2023/01/05 11:45:54;;;;;;;30.27;5.82;;;10.90;99.90;;;;;;7293223;32;20122;-60
2023/01/05 11:50:11;;;;;;;27.70;5.60;;;11.00;99.90;;;;;;7294847;32;20692;-62
2023/01/05 11:54:37;;;;;;;31.05;5.82;;;11.10;99.90;;;;;;7282400;32;20116;-62
2023/01/05 11:58:44;;;;;;;31.42;6.40;;;11.00;99.90;;;;;;7298042;32;21011;-62
2023/01/05 12:03:12;;;;;;;;;;;10.90;99.90;;;;;;7295514;32;20495;-63
2023/01/05 12:07:34;;;;;;;27.07;6.30;;;10.90;99.90;;;;;;7266665;32;20429;-63
2023/01/05 12:12:01;;;;;;;27.15;5.50;;;11.00;99.90;;;;;;7294893;32;20353;-63
2023/01/05 12:16:22;;;;;;;28.27;6.13;;;11.00;99.90;;;;;;7275638;32;20723;-62
2023/01/05 12:20:47;;;;;;;26.90;5.75;;;11.00;99.90;;;;;;7297649;32;20326;-62
2023/01/05 12:25:01;;;;;;;28.02;6.22;;;11.20;99.90;;;;;;7280908;32;20324;-62
2023/01/05 12:29:14;;;;;;;20.23;4.60;;;11.30;99.90;;;;;;7294782;32;20112;-63
2023/01/05 12:34:05;;;;;;;30.75;6.70;;;11.30;99.90;;;;;;7284053;32;20104;-62
2023/01/05 12:38:35;;;;;;;22.90;5.20;;;11.50;99.90;;;;;;7293591;32;20120;-62
2023/01/05 12:43:00;;;;;;;24.80;6.50;;;11.60;99.90;;;;;;7279520;32;20111;-62
2023/01/05 12:47:10;;;;;;;28.65;5.18;;;11.80;99.90;;;;;;7295193;32;20645;-62
2023/01/05 12:51:29;;;;;;;25.08;5.35;;;11.90;99.90;;;;;;7290757;32;20111;-62
2023/01/05 12:55:40;;;;;;;32.97;6.20;;;11.90;99.90;;;;;;7297993;32;20230;-62
2023/01/05 12:59:59;;;;;;;28.23;5.78;;;11.80;99.90;;;;;;7291424;32;20120;-62
2023/01/05 13:04:24;;;;;;;32.65;6.32;;;11.60;99.90;;;;;;7299078;32;20171;-61
2023/01/05 13:08:43;;;;;;;26.85;5.55;;;11.60;99.90;;;;;;7296329;32;20183;-63
2023/01/05 13:12:49;;;;;;;26.98;6.12;;;11.50;99.90;;;;;;7289078;32;20195;-62
2023/01/05 13:17:05;;;;;;;27.98;6.53;;;11.40;99.90;;;;;;7291780;32;20218;-61
2023/01/05 13:21:07;;;;;;;29.77;5.75;;;11.30;99.90;;;;;;7294940;32;20138;-61
2023/01/05 13:25:17;;;;;;;18.55;4.85;;;11.30;99.90;;;;;;7295374;32;20490;-61
2023/01/05 13:29:23;;;;;;;16.83;4.47;;;11.40;99.90;;;;;;7288414;32;20541;-61
2023/01/05 13:33:58;;;;;;;25.20;4.85;;;11.40;99.90;;;;;;7281704;32;20198;-59
2023/01/05 13:38:33;;;;;;;25.27;5.25;;;11.40;99.90;;;;;;7292684;32;20682;-60
2023/01/05 13:42:41;;;;;;;20.37;4.35;;;11.50;99.90;;;;;;7292976;32;20726;-59
2023/01/05 13:47:09;;;;;;;19.05;4.60;;;11.50;99.90;;;;;;7300112;32;20111;-60
2023/01/05 13:51:17;;;;;;;17.87;4.12;;;11.60;99.90;;;;;;7298904;32;20221;-60
2023/01/05 13:55:20;;;;;;;15.93;4.37;;;11.70;99.90;;;;;;7297084;32;20108;-60
2023/01/05 13:59:31;;;;;;;19.08;4.20;;;11.90;99.90;;;;;;7295243;32;20134;-61
2023/01/05 14:03:52;;;;;;;17.40;4.37;;;11.80;99.90;;;;;;7293836;32;20251;-61
2023/01/05 14:07:56;;;;;;;21.98;4.85;;;11.70;99.90;;;;;;7289971;32;20120;-61
2023/01/05 14:12:06;;;;;;;17.40;4.05;;;11.60;99.90;;;;;;7285517;32;20100;-63
2023/01/05 14:16:37;;;;;;;18.40;3.85;;;11.50;99.90;;;;;;7291744;32;20492;-62
2023/01/05 14:20:47;;;;;;;20.80;4.50;;;11.50;99.90;;;;;;7285945;32;20221;-62
2023/01/05 14:24:49;;;;;;;20.95;4.25;;;11.50;99.90;;;;;;7284315;32;20175;-62
2023/01/05 14:28:54;;;;;;;16.95;4.55;;;11.50;99.90;;;;;;7295992;32;20249;-62
2023/01/05 14:33:04;;;;;;;20.50;4.90;;;11.50;99.90;;;;;;7292219;32;20223;-61
2023/01/05 14:37:06;;;;;;;20.02;5.12;;;11.40;99.90;;;;;;7300544;32;20439;-61
2023/01/05 14:41:22;;;;;;;17.35;4.85;;;11.40;99.90;;;;;;7291012;32;20145;-62
2023/01/05 14:45:30;;;;;;;21.05;4.47;;;11.30;99.90;;;;;;7293840;32;20198;-61
2023/01/05 14:49:37;;;;;;;20.55;5.22;;;11.40;99.90;;;;;;7294936;32;20142;-61
2023/01/05 14:53:44;;;;;;;23.23;5.03;;;11.40;99.90;;;;;;7297305;32;20104;-61
2023/01/05 14:57:48;;;;;;;18.75;4.80;;;11.40;99.90;;;;;;7296079;32;20315;-63
2023/01/05 15:02:25;;;;;;;22.48;4.90;;;11.30;99.90;;;;;;7298096;32;20111;-62
2023/01/05 15:07:04;;;;;;;17.65;4.90;;;11.20;99.90;;;;;;7292177;32;20552;-63
2023/01/05 15:11:33;;;;;;;20.37;5.10;;;11.20;99.90;;;;;;7293852;32;20130;-61
2023/01/05 15:16:04;;;;;;;17.75;4.15;;;11.10;99.90;;;;;;7297290;32;20378;-61
2023/01/05 15:20:12;;;;;;;29.98;5.47;;;11.10;99.90;;;;;;7301394;32;20771;-61
2023/01/05 15:24:46;;;;;;;22.85;5.00;;;11.00;99.90;;;;;;7297416;32;20112;-62
2023/01/05 15:28:50;;;;;;;21.67;5.78;;;11.00;99.90;;;;;;7295399;32;20134;-62
2023/01/05 15:33:23;;;;;;;21.17;5.22;;;11.00;99.90;;;;;;7294037;32;20447;-61
2023/01/05 15:37:30;;;;;;;22.08;5.05;;;10.80;99.90;;;;;;7283386;32;20455;-63
2023/01/05 15:41:31;;;;;;;;;;;10.80;99.90;;;;;;7291741;32;20194;-60
2023/01/05 15:45:38;;;;;;;33.30;6.03;;;10.80;99.90;;;;;;7296106;32;20015;-61
2023/01/05 15:49:40;;;;;;;34.17;6.07;;;10.70;99.90;;;;;;7299025;32;20108;-60
2023/01/05 15:53:52;;;;;;;22.75;4.65;;;10.60;99.90;;;;;;7297053;32;20187;-59
2023/01/05 15:58:02;;;;;;;26.25;4.80;;;10.60;99.90;;;;;;7296596;32;20117;-60
2023/01/05 16:02:27;;;;;;;26.42;5.57;;;10.50;99.90;;;;;;7300801;32;20108;-59
2023/01/05 16:06:29;;;;;;;33.20;5.82;;;10.50;99.90;;;;;;7284548;32;20169;-59
2023/01/05 16:10:58;;;;;;;28.98;5.05;;;10.50;99.90;;;;;;7294726;32;20107;-59
2023/01/05 16:15:03;;;;;;;38.50;5.75;;;10.50;99.90;;;;;;7299246;32;20773;-60
2023/01/05 16:19:29;;;;;;;30.15;5.78;;;10.40;99.90;;;;;;7285709;32;20130;-60
2023/01/05 16:23:39;;;;;;;31.75;5.97;;;10.40;99.90;;;;;;7298383;32;20317;-60
2023/01/05 16:27:44;;;;;;;37.90;6.50;;;10.30;99.90;;;;;;7290742;32;20816;-61
2023/01/05 16:31:54;;;;;;;28.90;5.70;;;10.30;99.90;;;;;;7289828;32;20199;-60
2023/01/05 16:36:06;;;;;;;33.30;6.18;;;10.30;99.90;;;;;;7297555;32;20154;-60
2023/01/05 16:40:19;;;;;;;31.20;6.12;;;10.30;99.90;;;;;;7271254;32;20233;-59
2023/01/05 16:44:21;;;;;;;28.55;5.57;;;10.40;99.90;;;;;;7295347;32;20257;-59
2023/01/05 16:48:45;;;;;;;35.30;7.20;;;10.40;99.90;;;;;;7295104;32;20177;-62
2023/01/05 16:52:51;;;;;;;34.78;5.28;;;10.30;99.90;;;;;;7297926;32;20139;-62
2023/01/05 16:57:01;;;;;;;29.20;6.22;;;10.10;99.90;;;;;;7295108;32;20137;-63
2023/01/05 17:01:12;;;;;;;34.53;5.75;;;10.10;99.90;;;;;;7289289;32;20128;-62
2023/01/05 17:05:20;;;;;;;33.10;6.07;;;10.20;99.90;;;;;;7278354;32;20104;-62
2023/01/05 17:09:26;;;;;;;36.03;5.55;;;10.10;99.90;;;;;;7294442;32;20132;-62
2023/01/05 17:13:36;;;;;;;30.88;5.32;;;10.10;99.90;;;;;;7288430;32;20135;-62
2023/01/05 17:17:38;;;;;;;30.70;5.53;;;10.00;99.90;;;;;;7297977;32;20258;-60
2023/01/05 17:21:42;;;;;;;25.62;5.03;;;10.00;99.90;;;;;;7280466;32;20119;-61
2023/01/05 17:25:43;;;;;;;34.53;5.87;;;10.10;99.90;;;;;;7289496;32;20230;-62
2023/01/05 17:29:45;;;;;;;33.38;5.95;;;10.10;99.90;;;;;;7293542;32;20210;-61
2023/01/05 17:33:47;;;;;;;32.53;5.82;;;10.00;99.90;;;;;;7293651;32;20165;-61
2023/01/05 17:37:48;;;;;;;33.45;5.93;;;10.00;99.90;;;;;;7282954;32;20195;-61
2023/01/05 17:41:50;;;;;;;33.45;6.55;;;10.00;99.90;;;;;;7289431;32;20199;-61
2023/01/05 17:45:52;;;;;;;27.45;5.78;;;10.00;99.90;;;;;;7291474;32;20206;-60
2023/01/05 17:49:54;;;;;;;32.70;5.95;;;9.90;99.90;;;;;;7286612;32;20163;-61
2023/01/05 17:53:57;;;;;;;29.40;5.55;;;9.90;99.90;;;;;;7292540;32;20113;-61
2023/01/05 17:58:00;;;;;;;32.15;6.65;;;9.90;99.90;;;;;;7291842;32;20116;-61
2023/01/05 18:02:02;;;;;;;31.67;6.18;;;9.90;99.90;;;;;;7289594;32;20273;-62
2023/01/05 18:06:04;;;;;;;30.50;5.97;;;9.90;99.90;;;;;;7287686;32;20232;-62
2023/01/05 18:10:09;;;;;;;23.92;5.35;;;9.90;99.90;;;;;;7270477;32;20192;-62
2023/01/05 18:14:11;;;;;;;26.12;5.80;;;9.80;99.90;;;;;;7293689;32;20103;-61
2023/01/05 18:18:13;;;;;;;25.67;5.18;;;9.90;99.90;;;;;;7276219;32;20149;-60
2023/01/05 18:22:14;;;;;;;28.30;5.72;;;9.90;99.90;;;;;;7294625;32;20229;-60
2023/01/05 18:26:16;;;;;;;27.30;6.32;;;9.80;99.90;;;;;;7301009;32;20112;-60
2023/01/05 18:30:18;;;;;;;33.00;7.15;;;9.80;99.90;;;;;;7296686;32;21205;-60
2023/01/05 18:34:20;;;;;;;31.75;8.45;;;9.80;99.90;;;;;;7294990;32;20206;-59
2023/01/05 18:38:22;;;;;;;33.55;9.10;;;9.80;99.90;;;;;;7293605;32;20195;-60
2023/01/05 18:42:25;;;;;;;25.80;8.27;;;9.80;99.90;;;;;;7300655;32;20278;-61
2023/01/05 18:46:28;;;;;;;27.58;7.68;;;9.90;99.90;;;;;;7297984;32;20222;-61
2023/01/05 18:50:30;;;;;;;21.62;8.05;;;9.90;99.90;;;;;;7301273;32;20210;-61
2023/01/05 18:54:32;;;;;;;34.78;8.57;;;9.80;99.90;;;;;;7297804;32;20486;-60
2023/01/05 18:58:34;;;;;;;27.25;9.43;;;9.80;99.90;;;;;;7300148;32;20139;-60
2023/01/05 19:02:35;;;;;;;28.90;10.02;;;9.80;99.90;;;;;;7296119;32;20112;-61
2023/01/05 19:06:38;;;;;;;27.83;9.93;;;9.90;99.90;;;;;;7297035;32;20271;-61
2023/01/05 19:10:40;;;;;;;24.00;9.88;;;9.90;99.90;;;;;;7298532;32;20124;-60
2023/01/05 19:14:42;;;;;;;21.87;8.98;;;9.90;99.90;;;;;;7296425;32;20113;-60
2023/01/05 19:18:48;;;;;;;18.42;9.05;;;9.90;99.90;;;;;;7292909;32;20509;-62
2023/01/05 19:22:50;;;;;;;21.00;9.05;;;10.00;99.90;;;;;;7299889;32;20128;-61
2023/01/05 19:26:52;;;;;;;28.83;9.57;;;10.00;99.90;;;;;;7286306;32;20175;-62
2023/01/05 19:31:09;;;;;;;24.25;9.73;;;10.00;99.90;;;;;;7291344;32;20333;-61
2023/01/05 19:35:11;;;;;;;22.97;9.83;;;10.00;99.90;;;;;;7289941;32;20129;-62
2023/01/05 19:39:18;;;;;;;21.37;9.52;;;10.10;99.90;;;;;;7297535;32;20225;-63
2023/01/05 19:43:20;;;;;;;23.73;9.73;;;10.10;99.90;;;;;;7299330;32;20107;-62
2023/01/05 19:47:21;;;;;;;22.00;9.48;;;10.00;99.90;;;;;;7292312;32;20574;-61
2023/01/05 19:51:25;;;;;;;20.00;8.75;;;10.10;99.90;;;;;;7289566;32;20712;-61
2023/01/05 19:55:26;;;;;;;19.58;9.82;;;10.10;99.90;;;;;;7288052;32;20101;-61
2023/01/05 19:59:31;;;;;;;23.73;11.40;;;10.20;99.90;;;;;;7290623;32;20163;-62
2023/01/05 20:03:34;;;;;;;24.95;12.27;;;10.10;99.90;;;;;;7287735;32;20260;-61
2023/01/05 20:07:39;;;;;;;35.80;13.32;;;10.10;99.90;;;;;;7296953;32;20218;-63
2023/01/05 20:11:42;;;;;;;26.37;13.07;;;10.00;99.90;;;;;;7298603;32;20112;-62
2023/01/05 20:15:44;;;;;;;29.70;12.55;;;10.10;99.90;;;;;;7298235;32;20900;-62
2023/01/05 20:19:46;;;;;;;29.20;12.57;;;10.10;99.90;;;;;;7298285;32;20178;-63
2023/01/05 20:23:47;;;;;;;33.20;13.15;;;10.10;99.90;;;;;;7284969;32;20195;-63
2023/01/05 20:27:49;;;;;;;22.75;11.20;;;10.00;99.90;;;;;;7297842;32;20239;-62
2023/01/05 20:32:00;;;;;;;26.10;11.73;;;10.00;99.90;;;;;;7299180;32;20112;-64
2023/01/05 20:36:03;;;;;;;26.65;11.60;;;10.20;99.90;;;;;;7298290;32;20839;-62
2023/01/05 20:40:06;;;;;;;21.60;11.55;;;10.10;99.90;;;;;;7287809;32;20142;-59
2023/01/05 20:44:08;;;;;;;26.40;11.00;;;10.10;99.90;;;;;;7291961;32;20130;-61
2023/01/05 20:48:10;;;;;;;31.55;13.15;;;10.10;99.90;;;;;;7290748;32;20240;-59
2023/01/05 20:52:14;;;;;;;37.05;13.77;;;10.10;99.90;;;;;;7295102;32;20138;-59
2023/01/05 20:56:20;;;;;;;30.88;14.68;;;10.10;99.90;;;;;;7276085;32;20183;-60
2023/01/05 21:00:22;;;;;;;29.83;15.27;;;10.10;99.90;;;;;;7293422;32;20101;-59
2023/01/05 21:04:27;;;;;;;26.85;14.82;;;10.10;99.90;;;;;;7297154;32;20131;-59
2023/01/05 21:08:29;;;;;;;33.15;15.25;;;10.20;99.90;;;;;;7295670;32;20752;-59
2023/01/05 21:12:31;;;;;;;24.70;15.05;;;10.20;99.90;;;;;;7281602;32;20585;-60
2023/01/05 21:16:36;;;;;;;31.23;15.45;;;10.20;99.90;;;;;;7295972;32;20329;-60
2023/01/05 21:20:40;;;;;;;23.95;13.68;;;10.20;99.90;;;;;;7292092;32;20226;-60
2023/01/05 21:24:44;;;;;;;22.40;14.18;;;10.20;99.90;;;;;;7286530;32;20140;-60
2023/01/05 21:28:46;;;;;;;22.60;13.77;;;10.30;99.90;;;;;;7293506;32;20144;-61
2023/01/05 21:32:48;;;;;;;26.40;13.48;;;10.20;99.90;;;;;;7287666;32;20203;-60
2023/01/05 21:36:50;;;;;;;23.92;12.77;;;10.20;99.90;;;;;;7292283;32;20171;-60
2023/01/05 21:41:01;;;;;;;27.70;14.23;;;10.20;99.90;;;;;;7288653;32;20120;-61